»·PEaware :: N123PA KMYF-L04

N123PA :: KMYF-L04

FLIGHT INFORMATION

Flight Status: Arrived
Operator: Privately registered:
United States
More flights under this callsign
Pilot: Lee W. (44)
Aircraft: BEECH AIRCRAFT BARON
(BE58)
More flights by this aircraft type
Origin: KMYF Montgomery
United States
Destination: L04 Holtville
United States
More flights between these airports :: More routes between these airports
Route: +MZB V317 IPL
File this flight plan on PilotEdge
Remarks:
Altitude:
(Current/Filed)
7,000ft
Speed:
(Current/Filed)
150kts
Departed: 02-Oct-11 06:30 PM
Arrived: 02-Oct-11 07:20 PM
Distance/Time
Traveled:
94nm/0:50
Distance/Time
To Go:
Arrived

Flight Plot

Page will automatically refresh every two minutes.

Flight plan parsing failed; only flown route is shown


Map Options




Map Legend


Flown Route
Filed Route
Departure Airport
Arrival Airport
Navaid (VOR, NDB)
Fix

Horizontal Profiles

Position Reports

Time Latitude Longitude Heading Altitude Ground
Speed
02-Oct-11 18:16 32.813325 -117.145187 119 431ft 0kts
02-Oct-11 18:17 32.813325 -117.145187 119 431ft 0kts
02-Oct-11 18:19 32.813325 -117.145187 119 431ft 0kts
02-Oct-11 18:19 32.813325 -117.145187 119 431ft 0kts
02-Oct-11 18:20 32.813325 -117.145187 119 431ft 0kts
02-Oct-11 18:21 32.814733 -117.143547 63 431ft 13kts
02-Oct-11 18:22 32.813922 -117.139598 112 431ft 13kts
02-Oct-11 18:23 32.812310 -117.135543 110 431ft 13kts
02-Oct-11 18:24 32.811775 -117.131628 52 431ft 12kts
02-Oct-11 18:25 32.812150 -117.131377 18 431ft 0kts
02-Oct-11 18:26 32.812484 -117.131221 20 431ft 6kts
02-Oct-11 18:27 32.818145 -117.154502 279 759ft 143kts
02-Oct-11 18:28 32.824171 -117.206188 279 1512ft 161kts
02-Oct-11 18:29 32.830055 -117.256388 279 2137ft 151kts
02-Oct-11 18:30 32.836033 -117.305895 279 2722ft 150kts
02-Oct-11 18:31 32.841004 -117.355151 254 3255ft 151kts
02-Oct-11 18:32 32.807343 -117.349245 134 3733ft 158kts
02-Oct-11 18:33 32.776678 -117.311220 134 4243ft 158kts
02-Oct-11 18:34 32.751810 -117.270401 121 4964ft 153kts
02-Oct-11 18:35 32.732857 -117.226653 110 5612ft 153kts
02-Oct-11 18:36 32.717215 -117.180821 109 6225ft 153kts
02-Oct-11 18:37 32.701691 -117.136286 110 7041ft 144kts
02-Oct-11 18:39 32.687178 -117.094251 117 7012ft 173kts
02-Oct-11 18:40 32.659294 -117.049373 129 6997ft 172kts
02-Oct-11 18:41 32.628906 -117.005727 130 6997ft 171kts
02-Oct-11 18:42 32.611882 -116.956996 80 7000ft 169kts
02-Oct-11 18:43 32.618063 -116.900972 82 6988ft 171kts
02-Oct-11 18:44 32.623695 -116.844553 82 7003ft 173kts
02-Oct-11 18:45 32.629275 -116.788267 82 6986ft 172kts
02-Oct-11 18:46 32.634883 -116.731361 82 6999ft 174kts
02-Oct-11 18:47 32.640440 -116.674697 82 6991ft 172kts
02-Oct-11 18:48 32.646012 -116.617588 82 6992ft 174kts
02-Oct-11 18:49 32.651374 -116.562090 80 7016ft 164kts
02-Oct-11 18:50 32.656538 -116.508844 79 7149ft 156kts
02-Oct-11 18:51 32.661506 -116.457420 78 7183ft 157kts
02-Oct-11 18:52 32.666464 -116.405735 79 7187ft 157kts
02-Oct-11 18:53 32.671393 -116.354156 78 7195ft 157kts
02-Oct-11 18:54 32.676283 -116.302698 78 7179ft 156kts
02-Oct-11 18:55 32.681249 -116.250536 80 7004ft 155kts
02-Oct-11 18:56 32.685969 -116.200369 81 6988ft 150kts
02-Oct-11 18:57 32.694454 -116.109609 82 7007ft 151kts
02-Oct-11 18:58 32.699055 -116.060123 83 7007ft 151kts
02-Oct-11 18:59 32.703627 -116.010759 83 7007ft 151kts
02-Oct-11 19:00 32.708210 -115.961073 83 7006ft 151kts
02-Oct-11 19:01 32.712753 -115.911617 83 7006ft 151kts
02-Oct-11 19:02 32.717297 -115.861921 83 6997ft 151kts
02-Oct-11 19:03 32.721819 -115.812266 83 6996ft 151kts
02-Oct-11 19:04 32.726321 -115.762601 83 6996ft 151kts
02-Oct-11 19:05 32.730769 -115.713313 83 6996ft 151kts
02-Oct-11 19:06 32.735241 -115.663533 83 6996ft 151kts
02-Oct-11 19:07 32.739695 -115.613732 83 6996ft 151kts
02-Oct-11 19:08 32.744126 -115.563969 83 6996ft 151kts
02-Oct-11 19:09 32.748584 -115.513595 83 6716ft 166kts
02-Oct-11 19:10 32.766033 -115.463036 64 5572ft 146kts
02-Oct-11 19:11 32.787653 -115.428710 48 4067ft 128kts
02-Oct-11 19:12 32.807579 -115.401909 48 2782ft 116kts
02-Oct-11 19:13 32.825521 -115.377780 48 2488ft 94kts
02-Oct-11 19:14 32.843084 -115.350699 57 2125ft 113kts
02-Oct-11 19:15 32.844333 -115.315225 99 1052ft 108kts
02-Oct-11 19:16 32.840884 -115.281326 92 76ft 90kts
02-Oct-11 19:17 32.840438 -115.270048 92 63ft 13kts
02-Oct-11 19:18 32.839457 -115.267529 183 63ft 0kts

Navigation Log

Ident Type
Flight plan parsing failed, navigation log unavailable